sensor_id;sensor_type;location;lat;lon;timestamp;temperature;humidity
578;DHT22;275;48.492;9.214;2023-06-22T00:00:54;26.20;40.20
578;DHT22;275;48.492;9.214;2023-06-22T00:03:22;26.30;40.40
578;DHT22;275;48.492;9.214;2023-06-22T00:05:52;26.40;39.90
578;DHT22;275;48.492;9.214;2023-06-22T00:08:19;25.80;41.10
578;DHT22;275;48.492;9.214;2023-06-22T00:10:46;25.20;42.90
578;DHT22;275;48.492;9.214;2023-06-22T00:13:14;25.20;43.60
578;DHT22;275;48.492;9.214;2023-06-22T00:15:42;25.20;43.80
578;DHT22;275;48.492;9.214;2023-06-22T00:18:10;25.30;43.60
578;DHT22;275;48.492;9.214;2023-06-22T00:20:37;25.40;43.30
578;DHT22;275;48.492;9.214;2023-06-22T00:23:06;25.60;42.60
578;DHT22;275;48.492;9.214;2023-06-22T00:25:34;25.70;42.40
578;DHT22;275;48.492;9.214;2023-06-22T00:28:01;25.90;41.70
578;DHT22;275;48.492;9.214;2023-06-22T00:30:28;25.90;42.10
578;DHT22;275;48.492;9.214;2023-06-22T00:32:55;25.80;42.00
578;DHT22;275;48.492;9.214;2023-06-22T00:35:22;25.60;42.70
578;DHT22;275;48.492;9.214;2023-06-22T00:37:48;25.40;43.20
578;DHT22;275;48.492;9.214;2023-06-22T00:40:18;25.40;43.50
578;DHT22;275;48.492;9.214;2023-06-22T00:42:47;25.40;43.30
578;DHT22;275;48.492;9.214;2023-06-22T00:45:14;25.40;43.00
578;DHT22;275;48.492;9.214;2023-06-22T00:47:41;25.00;44.20
578;DHT22;275;48.492;9.214;2023-06-22T00:50:10;24.60;45.50
578;DHT22;275;48.492;9.214;2023-06-22T00:52:44;24.90;44.70
578;DHT22;275;48.492;9.214;2023-06-22T00:55:12;25.10;44.10
578;DHT22;275;48.492;9.214;2023-06-22T00:57:41;25.50;42.80
578;DHT22;275;48.492;9.214;2023-06-22T01:00:09;25.60;43.40
578;DHT22;275;48.492;9.214;2023-06-22T01:02:44;25.60;42.60
578;DHT22;275;48.492;9.214;2023-06-22T01:05:12;25.40;43.10
578;DHT22;275;48.492;9.214;2023-06-22T01:07:42;25.20;43.70
578;DHT22;275;48.492;9.214;2023-06-22T01:10:16;25.00;44.10
578;DHT22;275;48.492;9.214;2023-06-22T01:12:50;25.10;44.10
578;DHT22;275;48.492;9.214;2023-06-22T01:15:23;24.80;44.60
578;DHT22;275;48.492;9.214;2023-06-22T01:17:52;24.80;45.00
578;DHT22;275;48.492;9.214;2023-06-22T01:20:20;25.10;44.40
578;DHT22;275;48.492;9.214;2023-06-22T01:23:01;24.70;45.20
578;DHT22;275;48.492;9.214;2023-06-22T01:25:31;25.10;44.30
578;DHT22;275;48.492;9.214;2023-06-22T01:28:09;25.30;43.40
578;DHT22;275;48.492;9.214;2023-06-22T01:30:42;25.40;43.30
578;DHT22;275;48.492;9.214;2023-06-22T01:33:13;25.40;43.60
578;DHT22;275;48.492;9.214;2023-06-22T01:35:41;24.70;45.50
578;DHT22;275;48.492;9.214;2023-06-22T01:38:09;24.60;46.30
578;DHT22;275;48.492;9.214;2023-06-22T01:40:36;24.40;46.30
578;DHT22;275;48.492;9.214;2023-06-22T01:43:04;24.40;46.90
578;DHT22;275;48.492;9.214;2023-06-22T01:45:31;24.60;46.50
578;DHT22;275;48.492;9.214;2023-06-22T01:48:00;24.70;46.00
578;DHT22;275;48.492;9.214;2023-06-22T01:50:27;24.80;45.70
578;DHT22;275;48.492;9.214;2023-06-22T01:52:55;24.00;48.10
578;DHT22;275;48.492;9.214;2023-06-22T01:55:22;23.50;49.60
578;DHT22;275;48.492;9.214;2023-06-22T01:57:49;23.40;50.00
578;DHT22;275;48.492;9.214;2023-06-22T02:00:19;23.80;48.80
578;DHT22;275;48.492;9.214;2023-06-22T02:02:53;24.30;47.00
578;DHT22;275;48.492;9.214;2023-06-22T02:05:25;23.60;48.60
578;DHT22;275;48.492;9.214;2023-06-22T02:07:58;22.90;51.10
578;DHT22;275;48.492;9.214;2023-06-22T02:10:27;22.60;52.20
578;DHT22;275;48.492;9.214;2023-06-22T02:12:57;22.90;51.40
578;DHT22;275;48.492;9.214;2023-06-22T02:15:25;23.50;48.90
578;DHT22;275;48.492;9.214;2023-06-22T02:17:52;23.90;47.80
578;DHT22;275;48.492;9.214;2023-06-22T02:20:19;24.20;46.90
578;DHT22;275;48.492;9.214;2023-06-22T02:22:48;24.20;46.70
578;DHT22;275;48.492;9.214;2023-06-22T02:25:16;24.30;46.20
578;DHT22;275;48.492;9.214;2023-06-22T02:27:44;24.30;46.20
578;DHT22;275;48.492;9.214;2023-06-22T02:30:12;24.30;46.10
578;DHT22;275;48.492;9.214;2023-06-22T02:32:40;24.50;45.70
578;DHT22;275;48.492;9.214;2023-06-22T02:35:08;24.20;46.30
578;DHT22;275;48.492;9.214;2023-06-22T02:37:36;23.70;48.10
578;DHT22;275;48.492;9.214;2023-06-22T02:40:09;23.10;50.10
578;DHT22;275;48.492;9.214;2023-06-22T02:42:36;23.10;50.30
578;DHT22;275;48.492;9.214;2023-06-22T02:45:04;23.10;50.30
578;DHT22;275;48.492;9.214;2023-06-22T02:47:31;22.70;51.50
578;DHT22;275;48.492;9.214;2023-06-22T02:49:58;22.50;52.50
578;DHT22;275;48.492;9.214;2023-06-22T02:52:24;22.20;53.90
578;DHT22;275;48.492;9.214;2023-06-22T02:54:51;22.30;53.90
578;DHT22;275;48.492;9.214;2023-06-22T02:57:19;22.50;53.00
578;DHT22;275;48.492;9.214;2023-06-22T02:59:46;22.40;52.90
578;DHT22;275;48.492;9.214;2023-06-22T03:02:13;22.60;52.30
578;DHT22;275;48.492;9.214;2023-06-22T03:04:40;22.30;53.00
578;DHT22;275;48.492;9.214;2023-06-22T03:07:08;22.50;52.30
578;DHT22;275;48.492;9.214;2023-06-22T03:09:35;22.30;52.80
578;DHT22;275;48.492;9.214;2023-06-22T03:12:02;22.10;53.30
578;DHT22;275;48.492;9.214;2023-06-22T03:14:30;22.20;52.90
578;DHT22;275;48.492;9.214;2023-06-22T03:16:57;22.70;51.20
578;DHT22;275;48.492;9.214;2023-06-22T03:19:28;23.00;50.30
578;DHT22;275;48.492;9.214;2023-06-22T03:21:56;23.20;49.10
578;DHT22;275;48.492;9.214;2023-06-22T03:24:23;23.40;48.50
578;DHT22;275;48.492;9.214;2023-06-22T03:26:50;23.10;49.60
578;DHT22;275;48.492;9.214;2023-06-22T03:29:17;22.30;51.70
578;DHT22;275;48.492;9.214;2023-06-22T03:31:47;21.90;53.50
578;DHT22;275;48.492;9.214;2023-06-22T03:34:14;21.60;55.10
578;DHT22;275;48.492;9.214;2023-06-22T03:36:44;21.40;56.70
578;DHT22;275;48.492;9.214;2023-06-22T03:39:11;21.50;55.40
578;DHT22;275;48.492;9.214;2023-06-22T03:41:38;22.00;53.90
578;DHT22;275;48.492;9.214;2023-06-22T03:44:05;22.30;52.50
578;DHT22;275;48.492;9.214;2023-06-22T03:46:32;22.50;51.70
578;DHT22;275;48.492;9.214;2023-06-22T03:49:00;23.00;50.20
578;DHT22;275;48.492;9.214;2023-06-22T03:51:28;23.10;49.40
578;DHT22;275;48.492;9.214;2023-06-22T03:53:55;22.80;50.20
578;DHT22;275;48.492;9.214;2023-06-22T03:56:22;22.60;51.00
578;DHT22;275;48.492;9.214;2023-06-22T03:58:49;22.30;51.80
578;DHT22;275;48.492;9.214;2023-06-22T04:01:16;22.50;51.10
578;DHT22;275;48.492;9.214;2023-06-22T04:03:43;22.60;51.00
578;DHT22;275;48.492;9.214;2023-06-22T04:06:11;22.60;51.00
578;DHT22;275;48.492;9.214;2023-06-22T04:08:38;22.50;51.40
578;DHT22;275;48.492;9.214;2023-06-22T04:11:06;22.50;51.20
578;DHT22;275;48.492;9.214;2023-06-22T04:13:32;22.80;50.50
578;DHT22;275;48.492;9.214;2023-06-22T04:15:59;22.90;50.10
578;DHT22;275;48.492;9.214;2023-06-22T04:18:27;23.20;49.10
578;DHT22;275;48.492;9.214;2023-06-22T04:20:54;23.40;48.70
578;DHT22;275;48.492;9.214;2023-06-22T04:23:22;23.20;49.40
578;DHT22;275;48.492;9.214;2023-06-22T04:25:48;23.70;48.00
578;DHT22;275;48.492;9.214;2023-06-22T04:28:16;23.70;47.50
578;DHT22;275;48.492;9.214;2023-06-22T04:30:43;23.70;47.70
578;DHT22;275;48.492;9.214;2023-06-22T04:33:13;24.20;46.40
578;DHT22;275;48.492;9.214;2023-06-22T04:35:40;24.00;46.70
578;DHT22;275;48.492;9.214;2023-06-22T04:38:08;24.40;45.40
578;DHT22;275;48.492;9.214;2023-06-22T04:40:36;24.80;44.60
578;DHT22;275;48.492;9.214;2023-06-22T04:43:03;25.10;43.90
578;DHT22;275;48.492;9.214;2023-06-22T04:45:31;25.40;43.30
578;DHT22;275;48.492;9.214;2023-06-22T04:47:58;25.40;42.80
578;DHT22;275;48.492;9.214;2023-06-22T04:50:25;25.20;43.30
578;DHT22;275;48.492;9.214;2023-06-22T04:52:52;25.30;43.20
578;DHT22;275;48.492;9.214;2023-06-22T04:55:19;25.70;42.10
578;DHT22;275;48.492;9.214;2023-06-22T04:57:48;26.70;39.70
578;DHT22;275;48.492;9.214;2023-06-22T05:00:16;27.00;38.90
578;DHT22;275;48.492;9.214;2023-06-22T05:02:45;27.40;38.10
578;DHT22;275;48.492;9.214;2023-06-22T05:05:13;27.20;38.40
578;DHT22;275;48.492;9.214;2023-06-22T05:07:41;27.60;37.40
578;DHT22;275;48.492;9.214;2023-06-22T05:10:10;28.00;36.60
578;DHT22;275;48.492;9.214;2023-06-22T05:12:38;28.30;35.90
578;DHT22;275;48.492;9.214;2023-06-22T05:15:07;28.60;35.00
578;DHT22;275;48.492;9.214;2023-06-22T05:17:35;28.10;36.30
578;DHT22;275;48.492;9.214;2023-06-22T05:20:02;27.90;37.10
578;DHT22;275;48.492;9.214;2023-06-22T05:22:31;28.20;36.10
578;DHT22;275;48.492;9.214;2023-06-22T05:24:58;28.60;35.30
578;DHT22;275;48.492;9.214;2023-06-22T05:27:25;29.00;34.40
578;DHT22;275;48.492;9.214;2023-06-22T05:29:52;28.70;35.30
578;DHT22;275;48.492;9.214;2023-06-22T05:32:20;28.60;35.40
578;DHT22;275;48.492;9.214;2023-06-22T05:34:47;29.10;34.90
578;DHT22;275;48.492;9.214;2023-06-22T05:37:13;29.30;34.00
578;DHT22;275;48.492;9.214;2023-06-22T05:39:40;29.30;33.90
578;DHT22;275;48.492;9.214;2023-06-22T05:42:07;29.20;34.20
578;DHT22;275;48.492;9.214;2023-06-22T05:44:34;29.60;33.40
578;DHT22;275;48.492;9.214;2023-06-22T05:47:03;30.20;31.60
578;DHT22;275;48.492;9.214;2023-06-22T05:49:31;29.90;32.40
578;DHT22;275;48.492;9.214;2023-06-22T05:51:58;30.20;32.10
578;DHT22;275;48.492;9.214;2023-06-22T05:54:26;30.30;31.50
578;DHT22;275;48.492;9.214;2023-06-22T05:56:53;30.20;31.90
578;DHT22;275;48.492;9.214;2023-06-22T05:59:20;30.40;31.10
578;DHT22;275;48.492;9.214;2023-06-22T06:01:47;30.80;30.70
578;DHT22;275;48.492;9.214;2023-06-22T06:04:16;31.20;30.00
578;DHT22;275;48.492;9.214;2023-06-22T06:06:45;31.30;29.60
578;DHT22;275;48.492;9.214;2023-06-22T06:09:12;31.80;28.90
578;DHT22;275;48.492;9.214;2023-06-22T06:11:39;31.50;28.90
578;DHT22;275;48.492;9.214;2023-06-22T06:14:06;30.80;30.00
578;DHT22;275;48.492;9.214;2023-06-22T06:16:33;31.60;29.00
578;DHT22;275;48.492;9.214;2023-06-22T06:19:00;32.50;27.90
578;DHT22;275;48.492;9.214;2023-06-22T06:21:27;32.60;27.40
578;DHT22;275;48.492;9.214;2023-06-22T06:23:55;32.00;28.10
578;DHT22;275;48.492;9.214;2023-06-22T06:26:22;31.60;28.90
578;DHT22;275;48.492;9.214;2023-06-22T06:28:53;32.70;27.40
578;DHT22;275;48.492;9.214;2023-06-22T06:31:20;33.20;26.70
578;DHT22;275;48.492;9.214;2023-06-22T06:33:48;33.50;25.90
578;DHT22;275;48.492;9.214;2023-06-22T06:36:15;33.00;26.70
578;DHT22;275;48.492;9.214;2023-06-22T06:38:42;33.50;25.90
578;DHT22;275;48.492;9.214;2023-06-22T06:41:10;33.90;25.20
578;DHT22;275;48.492;9.214;2023-06-22T06:43:37;33.80;25.40
578;DHT22;275;48.492;9.214;2023-06-22T06:46:04;34.10;24.80
578;DHT22;275;48.492;9.214;2023-06-22T06:48:30;33.60;25.50
578;DHT22;275;48.492;9.214;2023-06-22T06:50:57;32.90;26.40
578;DHT22;275;48.492;9.214;2023-06-22T06:53:24;32.60;26.50
578;DHT22;275;48.492;9.214;2023-06-22T06:55:51;31.90;27.40
578;DHT22;275;48.492;9.214;2023-06-22T06:58:19;30.80;28.90
578;DHT22;275;48.492;9.214;2023-06-22T07:00:48;30.10;30.40
578;DHT22;275;48.492;9.214;2023-06-22T07:03:15;30.10;30.30
578;DHT22;275;48.492;9.214;2023-06-22T07:05:42;29.90;30.60
578;DHT22;275;48.492;9.214;2023-06-22T07:08:08;30.20;30.90
578;DHT22;275;48.492;9.214;2023-06-22T07:10:37;30.20;30.00
578;DHT22;275;48.492;9.214;2023-06-22T07:13:03;30.30;30.20
578;DHT22;275;48.492;9.214;2023-06-22T07:15:32;30.40;30.00
578;DHT22;275;48.492;9.214;2023-06-22T07:17:58;30.70;29.50
578;DHT22;275;48.492;9.214;2023-06-22T07:20:25;30.90;29.10
578;DHT22;275;48.492;9.214;2023-06-22T07:22:52;30.90;29.40
578;DHT22;275;48.492;9.214;2023-06-22T07:25:19;31.60;28.50
578;DHT22;275;48.492;9.214;2023-06-22T07:27:57;32.50;27.10
578;DHT22;275;48.492;9.214;2023-06-22T07:30:24;33.20;26.60
578;DHT22;275;48.492;9.214;2023-06-22T07:32:52;35.30;23.90
578;DHT22;275;48.492;9.214;2023-06-22T07:35:19;36.30;22.20
578;DHT22;275;48.492;9.214;2023-06-22T07:37:46;34.50;24.00
578;DHT22;275;48.492;9.214;2023-06-22T07:40:13;33.70;25.40
578;DHT22;275;48.492;9.214;2023-06-22T07:42:40;33.40;25.80
578;DHT22;275;48.492;9.214;2023-06-22T07:45:07;34.80;24.30
578;DHT22;275;48.492;9.214;2023-06-22T07:47:34;34.50;24.70
578;DHT22;275;48.492;9.214;2023-06-22T07:50:04;35.70;23.40
578;DHT22;275;48.492;9.214;2023-06-22T07:52:31;36.80;21.70
578;DHT22;275;48.492;9.214;2023-06-22T07:54:58;36.20;22.40
578;DHT22;275;48.492;9.214;2023-06-22T07:57:25;36.80;21.70
578;DHT22;275;48.492;9.214;2023-06-22T07:59:57;37.60;20.60
578;DHT22;275;48.492;9.214;2023-06-22T08:02:25;37.70;20.60
578;DHT22;275;48.492;9.214;2023-06-22T08:04:52;38.70;19.70
578;DHT22;275;48.492;9.214;2023-06-22T08:07:20;38.90;19.30
578;DHT22;275;48.492;9.214;2023-06-22T08:09:47;38.60;19.40
578;DHT22;275;48.492;9.214;2023-06-22T08:12:14;38.60;19.40
578;DHT22;275;48.492;9.214;2023-06-22T08:14:42;38.90;19.10
578;DHT22;275;48.492;9.214;2023-06-22T08:17:09;39.10;18.60
578;DHT22;275;48.492;9.214;2023-06-22T08:19:37;39.00;18.60
578;DHT22;275;48.492;9.214;2023-06-22T08:22:04;38.90;18.40
578;DHT22;275;48.492;9.214;2023-06-22T08:24:33;38.50;19.10
578;DHT22;275;48.492;9.214;2023-06-22T08:26:59;38.90;18.40
578;DHT22;275;48.492;9.214;2023-06-22T08:29:26;39.00;18.30
578;DHT22;275;48.492;9.214;2023-06-22T08:31:53;38.30;19.00
578;DHT22;275;48.492;9.214;2023-06-22T08:34:20;37.70;19.40
578;DHT22;275;48.492;9.214;2023-06-22T08:36:51;37.80;19.40
578;DHT22;275;48.492;9.214;2023-06-22T08:39:18;36.90;20.50
578;DHT22;275;48.492;9.214;2023-06-22T08:41:47;35.30;22.70
578;DHT22;275;48.492;9.214;2023-06-22T08:44:14;34.80;23.40
578;DHT22;275;48.492;9.214;2023-06-22T08:46:40;34.80;23.20
578;DHT22;275;48.492;9.214;2023-06-22T08:49:07;35.00;23.00
578;DHT22;275;48.492;9.214;2023-06-22T08:51:35;35.00;23.40
578;DHT22;275;48.492;9.214;2023-06-22T08:54:03;35.50;23.00
578;DHT22;275;48.492;9.214;2023-06-22T08:56:30;36.00;22.20
578;DHT22;275;48.492;9.214;2023-06-22T08:58:58;33.70;25.20
578;DHT22;275;48.492;9.214;2023-06-22T09:01:25;34.30;25.00
578;DHT22;275;48.492;9.214;2023-06-22T09:03:52;36.60;22.10
578;DHT22;275;48.492;9.214;2023-06-22T09:06:23;38.20;20.20
578;DHT22;275;48.492;9.214;2023-06-22T09:08:50;40.30;17.90
578;DHT22;275;48.492;9.214;2023-06-22T09:11:17;40.80;17.10
578;DHT22;275;48.492;9.214;2023-06-22T09:13:43;42.00;15.90
578;DHT22;275;48.492;9.214;2023-06-22T09:16:13;42.60;15.10
578;DHT22;275;48.492;9.214;2023-06-22T09:18:40;40.70;17.10
578;DHT22;275;48.492;9.214;2023-06-22T09:21:07;40.40;17.00
578;DHT22;275;48.492;9.214;2023-06-22T09:23:34;40.90;16.60
578;DHT22;275;48.492;9.214;2023-06-22T09:26:01;41.20;16.40
578;DHT22;275;48.492;9.214;2023-06-22T09:28:28;41.30;16.10
578;DHT22;275;48.492;9.214;2023-06-22T09:30:55;41.20;16.30
578;DHT22;275;48.492;9.214;2023-06-22T09:33:25;40.70;16.50
578;DHT22;275;48.492;9.214;2023-06-22T09:35:51;40.00;17.60
578;DHT22;275;48.492;9.214;2023-06-22T09:38:18;40.90;16.70
578;DHT22;275;48.492;9.214;2023-06-22T09:40:45;42.10;15.30
578;DHT22;275;48.492;9.214;2023-06-22T09:43:12;42.60;14.80
578;DHT22;275;48.492;9.214;2023-06-22T09:45:39;43.40;14.10
578;DHT22;275;48.492;9.214;2023-06-22T09:48:06;42.40;14.70
578;DHT22;275;48.492;9.214;2023-06-22T09:50:34;42.00;15.10
578;DHT22;275;48.492;9.214;2023-06-22T09:53:01;41.00;16.40
578;DHT22;275;48.492;9.214;2023-06-22T09:55:28;41.70;15.60
578;DHT22;275;48.492;9.214;2023-06-22T09:57:54;41.30;15.70
578;DHT22;275;48.492;9.214;2023-06-22T10:00:21;40.80;16.10
578;DHT22;275;48.492;9.214;2023-06-22T10:02:48;38.70;18.30
578;DHT22;275;48.492;9.214;2023-06-22T10:05:16;38.40;18.80
578;DHT22;275;48.492;9.214;2023-06-22T10:07:44;38.80;18.20
578;DHT22;275;48.492;9.214;2023-06-22T10:10:12;38.80;18.20
578;DHT22;275;48.492;9.214;2023-06-22T10:12:42;38.30;18.90
578;DHT22;275;48.492;9.214;2023-06-22T10:15:10;37.60;19.80
578;DHT22;275;48.492;9.214;2023-06-22T10:17:37;39.90;17.50
578;DHT22;275;48.492;9.214;2023-06-22T10:20:05;42.80;14.60
578;DHT22;275;48.492;9.214;2023-06-22T10:22:37;43.90;13.10
578;DHT22;275;48.492;9.214;2023-06-22T10:25:06;42.80;14.10
578;DHT22;275;48.492;9.214;2023-06-22T10:27:33;42.90;13.80
578;DHT22;275;48.492;9.214;2023-06-22T10:30:00;43.80;13.20
578;DHT22;275;48.492;9.214;2023-06-22T10:32:27;44.40;12.90
578;DHT22;275;48.492;9.214;2023-06-22T10:34:54;43.30;13.30
578;DHT22;275;48.492;9.214;2023-06-22T10:37:21;44.00;12.80
578;DHT22;275;48.492;9.214;2023-06-22T10:39:48;45.10;11.60
578;DHT22;275;48.492;9.214;2023-06-22T10:42:17;45.10;11.40
578;DHT22;275;48.492;9.214;2023-06-22T10:44:43;44.70;11.50
578;DHT22;275;48.492;9.214;2023-06-22T10:47:11;42.80;13.60
578;DHT22;275;48.492;9.214;2023-06-22T10:49:38;41.30;14.90
578;DHT22;275;48.492;9.214;2023-06-22T10:52:06;41.10;15.60
578;DHT22;275;48.492;9.214;2023-06-22T10:54:33;41.70;14.70
578;DHT22;275;48.492;9.214;2023-06-22T10:57:00;40.20;16.50
578;DHT22;275;48.492;9.214;2023-06-22T10:59:28;41.00;15.80
578;DHT22;275;48.492;9.214;2023-06-22T11:01:55;39.50;17.50
578;DHT22;275;48.492;9.214;2023-06-22T11:04:22;39.00;18.30
578;DHT22;275;48.492;9.214;2023-06-22T11:06:49;39.80;17.60
578;DHT22;275;48.492;9.214;2023-06-22T11:09:16;39.70;17.80
578;DHT22;275;48.492;9.214;2023-06-22T11:11:46;40.40;16.40
578;DHT22;275;48.492;9.214;2023-06-22T11:14:18;41.50;15.60
578;DHT22;275;48.492;9.214;2023-06-22T11:16:46;41.80;15.30
578;DHT22;275;48.492;9.214;2023-06-22T11:19:13;41.50;15.20
578;DHT22;275;48.492;9.214;2023-06-22T11:21:40;42.00;14.80
578;DHT22;275;48.492;9.214;2023-06-22T11:24:07;41.60;14.70
578;DHT22;275;48.492;9.214;2023-06-22T11:26:34;41.60;14.30
578;DHT22;275;48.492;9.214;2023-06-22T11:29:01;41.80;14.10
578;DHT22;275;48.492;9.214;2023-06-22T11:31:30;41.10;15.50
578;DHT22;275;48.492;9.214;2023-06-22T11:33:59;39.90;16.50
578;DHT22;275;48.492;9.214;2023-06-22T11:36:26;39.60;16.90
578;DHT22;275;48.492;9.214;2023-06-22T11:38:54;39.20;17.60
578;DHT22;275;48.492;9.214;2023-06-22T11:41:21;37.80;19.50
578;DHT22;275;48.492;9.214;2023-06-22T11:43:48;37.30;20.80
578;DHT22;275;48.492;9.214;2023-06-22T11:46:15;37.70;19.80
578;DHT22;275;48.492;9.214;2023-06-22T11:48:42;37.60;19.80
578;DHT22;275;48.492;9.214;2023-06-22T11:51:10;37.30;20.50
578;DHT22;275;48.492;9.214;2023-06-22T11:53:37;37.50;20.10
578;DHT22;275;48.492;9.214;2023-06-22T11:56:04;38.60;18.90
578;DHT22;275;48.492;9.214;2023-06-22T11:58:31;39.80;17.10
578;DHT22;275;48.492;9.214;2023-06-22T12:00:58;39.10;18.00
578;DHT22;275;48.492;9.214;2023-06-22T12:03:24;40.30;16.50
578;DHT22;275;48.492;9.214;2023-06-22T12:05:51;40.60;16.10
578;DHT22;275;48.492;9.214;2023-06-22T12:08:21;41.10;15.40
578;DHT22;275;48.492;9.214;2023-06-22T12:10:49;41.10;15.50
578;DHT22;275;48.492;9.214;2023-06-22T12:13:16;40.20;16.80
578;DHT22;275;48.492;9.214;2023-06-22T12:15:43;39.50;17.40
578;DHT22;275;48.492;9.214;2023-06-22T12:18:10;39.10;18.00
578;DHT22;275;48.492;9.214;2023-06-22T12:20:39;37.90;19.50
578;DHT22;275;48.492;9.214;2023-06-22T12:23:06;37.30;20.40
578;DHT22;275;48.492;9.214;2023-06-22T12:25:34;37.50;20.10
578;DHT22;275;48.492;9.214;2023-06-22T12:28:01;37.10;20.60
578;DHT22;275;48.492;9.214;2023-06-22T12:30:30;36.70;21.50
578;DHT22;275;48.492;9.214;2023-06-22T12:32:56;36.40;22.10
578;DHT22;275;48.492;9.214;2023-06-22T12:35:23;35.80;22.80
578;DHT22;275;48.492;9.214;2023-06-22T12:37:50;35.60;23.00
578;DHT22;275;48.492;9.214;2023-06-22T12:40:17;35.30;23.60
578;DHT22;275;48.492;9.214;2023-06-22T12:42:46;35.10;23.90
578;DHT22;275;48.492;9.214;2023-06-22T12:45:12;34.50;24.60
578;DHT22;275;48.492;9.214;2023-06-22T12:47:39;34.70;24.40
578;DHT22;275;48.492;9.214;2023-06-22T12:50:07;34.90;24.10
578;DHT22;275;48.492;9.214;2023-06-22T12:52:36;35.20;23.70
578;DHT22;275;48.492;9.214;2023-06-22T12:55:05;35.30;23.40
578;DHT22;275;48.492;9.214;2023-06-22T12:57:32;35.70;23.20
578;DHT22;275;48.492;9.214;2023-06-22T13:00:00;36.30;22.50
578;DHT22;275;48.492;9.214;2023-06-22T13:02:27;36.20;22.30
578;DHT22;275;48.492;9.214;2023-06-22T13:04:53;35.50;23.00
578;DHT22;275;48.492;9.214;2023-06-22T13:07:20;35.40;23.30
578;DHT22;275;48.492;9.214;2023-06-22T13:09:48;35.90;22.80
578;DHT22;275;48.492;9.214;2023-06-22T13:12:17;36.40;22.10
578;DHT22;275;48.492;9.214;2023-06-22T13:14:45;36.00;22.80
578;DHT22;275;48.492;9.214;2023-06-22T13:17:13;36.90;21.80
578;DHT22;275;48.492;9.214;2023-06-22T13:19:40;36.60;22.00
578;DHT22;275;48.492;9.214;2023-06-22T13:22:26;36.10;22.70
578;DHT22;275;48.492;9.214;2023-06-22T13:24:53;36.70;21.80
578;DHT22;275;48.492;9.214;2023-06-22T13:27:20;36.90;21.50
578;DHT22;275;48.492;9.214;2023-06-22T13:29:47;37.60;20.60
578;DHT22;275;48.492;9.214;2023-06-22T13:32:15;37.40;21.40
578;DHT22;275;48.492;9.214;2023-06-22T13:34:42;37.30;20.30
578;DHT22;275;48.492;9.214;2023-06-22T13:37:09;37.20;20.10
578;DHT22;275;48.492;9.214;2023-06-22T13:39:36;37.10;20.40
578;DHT22;275;48.492;9.214;2023-06-22T13:42:03;36.50;21.30
578;DHT22;275;48.492;9.214;2023-06-22T13:44:30;36.60;20.90
578;DHT22;275;48.492;9.214;2023-06-22T13:46:56;36.80;20.40
578;DHT22;275;48.492;9.214;2023-06-22T13:49:25;36.90;20.40
578;DHT22;275;48.492;9.214;2023-06-22T13:51:52;37.20;20.20
578;DHT22;275;48.492;9.214;2023-06-22T13:54:19;37.10;20.50
578;DHT22;275;48.492;9.214;2023-06-22T13:56:45;36.60;20.30
578;DHT22;275;48.492;9.214;2023-06-22T13:59:12;36.40;21.30
578;DHT22;275;48.492;9.214;2023-06-22T14:01:39;36.40;20.90
578;DHT22;275;48.492;9.214;2023-06-22T14:04:07;36.20;21.20
578;DHT22;275;48.492;9.214;2023-06-22T14:06:35;36.20;20.70
578;DHT22;275;48.492;9.214;2023-06-22T14:09:02;35.50;21.30
578;DHT22;275;48.492;9.214;2023-06-22T14:11:29;34.60;22.20
578;DHT22;275;48.492;9.214;2023-06-22T14:13:59;35.10;21.70
578;DHT22;275;48.492;9.214;2023-06-22T14:16:36;35.40;21.20
578;DHT22;275;48.492;9.214;2023-06-22T14:19:05;35.50;21.30
578;DHT22;275;48.492;9.214;2023-06-22T14:21:31;35.90;20.80
578;DHT22;275;48.492;9.214;2023-06-22T14:24:00;36.30;20.20
578;DHT22;275;48.492;9.214;2023-06-22T14:26:28;36.80;19.80
578;DHT22;275;48.492;9.214;2023-06-22T14:28:55;36.50;20.50
578;DHT22;275;48.492;9.214;2023-06-22T14:31:22;36.60;20.60
578;DHT22;275;48.492;9.214;2023-06-22T14:33:50;35.70;21.70
578;DHT22;275;48.492;9.214;2023-06-22T14:36:16;35.10;22.70
578;DHT22;275;48.492;9.214;2023-06-22T14:38:44;35.10;22.90
578;DHT22;275;48.492;9.214;2023-06-22T14:41:13;35.90;22.30
578;DHT22;275;48.492;9.214;2023-06-22T14:43:44;36.10;21.90
578;DHT22;275;48.492;9.214;2023-06-22T14:46:11;35.80;22.70
578;DHT22;275;48.492;9.214;2023-06-22T14:48:38;36.00;22.20
578;DHT22;275;48.492;9.214;2023-06-22T14:51:05;36.40;21.90
578;DHT22;275;48.492;9.214;2023-06-22T14:53:32;36.50;21.80
578;DHT22;275;48.492;9.214;2023-06-22T14:55:59;36.20;22.30
578;DHT22;275;48.492;9.214;2023-06-22T14:58:28;36.30;22.50
578;DHT22;275;48.492;9.214;2023-06-22T15:00:58;35.90;23.10
578;DHT22;275;48.492;9.214;2023-06-22T15:03:25;35.50;24.00
578;DHT22;275;48.492;9.214;2023-06-22T15:05:54;35.80;23.30
578;DHT22;275;48.492;9.214;2023-06-22T15:08:21;35.60;21.40
578;DHT22;275;48.492;9.214;2023-06-22T15:10:48;35.30;21.50
578;DHT22;275;48.492;9.214;2023-06-22T15:13:15;35.10;22.10
578;DHT22;275;48.492;9.214;2023-06-22T15:15:44;35.10;22.60
578;DHT22;275;48.492;9.214;2023-06-22T15:18:10;34.80;23.00
578;DHT22;275;48.492;9.214;2023-06-22T15:20:37;33.80;24.80
578;DHT22;275;48.492;9.214;2023-06-22T15:23:05;34.20;24.60
578;DHT22;275;48.492;9.214;2023-06-22T15:25:32;34.40;24.20
578;DHT22;275;48.492;9.214;2023-06-22T15:27:59;34.30;23.50
578;DHT22;275;48.492;9.214;2023-06-22T15:30:26;34.20;22.90
578;DHT22;275;48.492;9.214;2023-06-22T15:32:54;34.40;22.50
578;DHT22;275;48.492;9.214;2023-06-22T15:35:21;34.00;23.50
578;DHT22;275;48.492;9.214;2023-06-22T15:37:49;33.40;22.10
578;DHT22;275;48.492;9.214;2023-06-22T15:40:17;33.30;20.70
578;DHT22;275;48.492;9.214;2023-06-22T15:42:44;33.20;19.30
578;DHT22;275;48.492;9.214;2023-06-22T15:45:13;32.50;19.20
578;DHT22;275;48.492;9.214;2023-06-22T15:47:40;32.40;18.80
578;DHT22;275;48.492;9.214;2023-06-22T15:50:09;32.70;18.30
578;DHT22;275;48.492;9.214;2023-06-22T15:52:36;32.80;17.90
578;DHT22;275;48.492;9.214;2023-06-22T15:55:03;32.80;18.10
578;DHT22;275;48.492;9.214;2023-06-22T15:57:30;32.20;18.30
578;DHT22;275;48.492;9.214;2023-06-22T15:59:57;32.20;18.80
578;DHT22;275;48.492;9.214;2023-06-22T16:02:23;32.30;18.80
578;DHT22;275;48.492;9.214;2023-06-22T16:04:52;32.30;18.70
578;DHT22;275;48.492;9.214;2023-06-22T16:07:23;32.20;18.80
578;DHT22;275;48.492;9.214;2023-06-22T16:09:50;31.20;19.90
578;DHT22;275;48.492;9.214;2023-06-22T16:12:16;31.30;20.40
578;DHT22;275;48.492;9.214;2023-06-22T16:14:43;31.50;20.30
578;DHT22;275;48.492;9.214;2023-06-22T16:17:12;32.20;19.80
578;DHT22;275;48.492;9.214;2023-06-22T16:19:39;32.70;19.10
578;DHT22;275;48.492;9.214;2023-06-22T16:22:06;32.90;18.80
578;DHT22;275;48.492;9.214;2023-06-22T16:24:34;32.90;18.70
578;DHT22;275;48.492;9.214;2023-06-22T16:27:01;32.40;19.10
578;DHT22;275;48.492;9.214;2023-06-22T16:29:27;32.40;19.30
578;DHT22;275;48.492;9.214;2023-06-22T16:31:54;32.00;19.80
578;DHT22;275;48.492;9.214;2023-06-22T16:34:21;31.90;19.80
578;DHT22;275;48.492;9.214;2023-06-22T16:36:48;31.60;20.30